sensor_id;sensor_type;location;lat;lon;timestamp;temperature;humidity
38606;DHT22;24365;48.446;8.850;2023-05-14T00:04:47;11.10;79.40
38606;DHT22;24365;48.446;8.850;2023-05-14T00:09:48;11.10;79.70
38606;DHT22;24365;48.446;8.850;2023-05-14T00:14:49;11.00;80.40
38606;DHT22;24365;48.446;8.850;2023-05-14T00:25:20;11.00;80.20
38606;DHT22;24365;48.446;8.850;2023-05-14T00:30:21;11.00;80.20
38606;DHT22;24365;48.446;8.850;2023-05-14T00:35:22;11.00;80.20
38606;DHT22;24365;48.446;8.850;2023-05-14T00:40:25;11.00;80.00
38606;DHT22;24365;48.446;8.850;2023-05-14T00:45:27;11.00;80.00
38606;DHT22;24365;48.446;8.850;2023-05-14T00:50:28;11.00;80.10
38606;DHT22;24365;48.446;8.850;2023-05-14T00:55:29;11.00;79.30
38606;DHT22;24365;48.446;8.850;2023-05-14T01:00:30;10.90;79.90
38606;DHT22;24365;48.446;8.850;2023-05-14T01:06:03;10.80;80.40
38606;DHT22;24365;48.446;8.850;2023-05-14T01:11:18;10.80;80.60
38606;DHT22;24365;48.446;8.850;2023-05-14T01:16:20;10.80;80.60
38606;DHT22;24365;48.446;8.850;2023-05-14T01:21:37;10.70;81.00
38606;DHT22;24365;48.446;8.850;2023-05-14T01:26:41;10.70;81.00
38606;DHT22;24365;48.446;8.850;2023-05-14T01:31:43;10.60;81.30
38606;DHT22;24365;48.446;8.850;2023-05-14T01:36:46;10.60;81.60
38606;DHT22;24365;48.446;8.850;2023-05-14T01:41:48;10.50;81.60
38606;DHT22;24365;48.446;8.850;2023-05-14T01:46:50;10.60;81.70
38606;DHT22;24365;48.446;8.850;2023-05-14T01:51:51;10.50;81.60
38606;DHT22;24365;48.446;8.850;2023-05-14T01:56:53;10.50;81.80
38606;DHT22;24365;48.446;8.850;2023-05-14T02:01:54;10.50;81.30
38606;DHT22;24365;48.446;8.850;2023-05-14T02:06:56;10.50;81.40
38606;DHT22;24365;48.446;8.850;2023-05-14T02:11:58;10.40;81.20
38606;DHT22;24365;48.446;8.850;2023-05-14T02:16:59;10.40;81.10
38606;DHT22;24365;48.446;8.850;2023-05-14T02:22:00;10.40;81.20
38606;DHT22;24365;48.446;8.850;2023-05-14T02:27:04;10.40;81.50
38606;DHT22;24365;48.446;8.850;2023-05-14T02:32:06;10.30;81.80
38606;DHT22;24365;48.446;8.850;2023-05-14T02:37:07;10.30;82.10
38606;DHT22;24365;48.446;8.850;2023-05-14T02:42:08;10.30;82.40
38606;DHT22;24365;48.446;8.850;2023-05-14T02:47:09;10.20;82.60
38606;DHT22;24365;48.446;8.850;2023-05-14T02:52:10;10.20;82.90
38606;DHT22;24365;48.446;8.850;2023-05-14T02:57:11;10.20;82.80
38606;DHT22;24365;48.446;8.850;2023-05-14T03:02:13;10.20;82.90
38606;DHT22;24365;48.446;8.850;2023-05-14T03:07:15;10.10;83.00
38606;DHT22;24365;48.446;8.850;2023-05-14T03:12:16;10.10;83.50
38606;DHT22;24365;48.446;8.850;2023-05-14T03:17:18;10.10;83.50
38606;DHT22;24365;48.446;8.850;2023-05-14T03:22:19;10.10;83.50
38606;DHT22;24365;48.446;8.850;2023-05-14T03:27:21;10.10;83.80
38606;DHT22;24365;48.446;8.850;2023-05-14T03:32:24;10.10;83.60
38606;DHT22;24365;48.446;8.850;2023-05-14T03:37:26;10.10;83.60
38606;DHT22;24365;48.446;8.850;2023-05-14T03:42:27;10.10;83.40
38606;DHT22;24365;48.446;8.850;2023-05-14T03:47:28;10.10;83.30
38606;DHT22;24365;48.446;8.850;2023-05-14T03:52:30;10.10;83.90
38606;DHT22;24365;48.446;8.850;2023-05-14T03:57:31;9.90;84.70
38606;DHT22;24365;48.446;8.850;2023-05-14T04:02:32;10.00;84.70
38606;DHT22;24365;48.446;8.850;2023-05-14T04:07:33;10.00;84.20
38606;DHT22;24365;48.446;8.850;2023-05-14T04:12:35;10.10;83.90
38606;DHT22;24365;48.446;8.850;2023-05-14T04:17:36;10.10;83.60
38606;DHT22;24365;48.446;8.850;2023-05-14T04:22:38;10.20;83.20
38606;DHT22;24365;48.446;8.850;2023-05-14T04:27:39;10.20;83.20
38606;DHT22;24365;48.446;8.850;2023-05-14T04:32:40;10.20;83.30
38606;DHT22;24365;48.446;8.850;2023-05-14T04:37:41;10.20;82.90
38606;DHT22;24365;48.446;8.850;2023-05-14T04:42:43;10.30;82.60
38606;DHT22;24365;48.446;8.850;2023-05-14T04:47:45;10.30;82.90
38606;DHT22;24365;48.446;8.850;2023-05-14T04:52:46;10.20;83.00
38606;DHT22;24365;48.446;8.850;2023-05-14T04:57:47;10.20;84.00
38606;DHT22;24365;48.446;8.850;2023-05-14T05:02:48;10.20;84.30
38606;DHT22;24365;48.446;8.850;2023-05-14T05:07:51;10.20;84.30
38606;DHT22;24365;48.446;8.850;2023-05-14T05:12:52;10.30;84.50
38606;DHT22;24365;48.446;8.850;2023-05-14T05:17:53;10.30;84.60
38606;DHT22;24365;48.446;8.850;2023-05-14T05:22:54;10.30;85.00
38606;DHT22;24365;48.446;8.850;2023-05-14T05:27:55;10.30;85.30
38606;DHT22;24365;48.446;8.850;2023-05-14T05:32:56;10.40;85.20
38606;DHT22;24365;48.446;8.850;2023-05-14T05:37:58;10.40;85.10
38606;DHT22;24365;48.446;8.850;2023-05-14T05:42:59;10.50;85.70
38606;DHT22;24365;48.446;8.850;2023-05-14T05:48:00;10.60;86.10
38606;DHT22;24365;48.446;8.850;2023-05-14T05:53:01;10.70;86.10
38606;DHT22;24365;48.446;8.850;2023-05-14T05:58:03;10.80;85.30
38606;DHT22;24365;48.446;8.850;2023-05-14T06:03:04;11.00;85.10
38606;DHT22;24365;48.446;8.850;2023-05-14T06:08:05;11.10;85.30
38606;DHT22;24365;48.446;8.850;2023-05-14T06:13:06;11.10;85.50
38606;DHT22;24365;48.446;8.850;2023-05-14T06:18:07;11.20;86.30
38606;DHT22;24365;48.446;8.850;2023-05-14T06:23:08;11.30;86.60
38606;DHT22;24365;48.446;8.850;2023-05-14T06:28:12;11.40;85.90
38606;DHT22;24365;48.446;8.850;2023-05-14T06:33:13;11.50;85.60
38606;DHT22;24365;48.446;8.850;2023-05-14T06:38:14;11.50;85.90
38606;DHT22;24365;48.446;8.850;2023-05-14T06:43:15;11.60;85.30
38606;DHT22;24365;48.446;8.850;2023-05-14T06:48:17;11.70;85.00
38606;DHT22;24365;48.446;8.850;2023-05-14T06:53:18;11.70;83.40
38606;DHT22;24365;48.446;8.850;2023-05-14T06:58:19;11.80;83.40
38606;DHT22;24365;48.446;8.850;2023-05-14T07:03:23;12.00;82.80
38606;DHT22;24365;48.446;8.850;2023-05-14T07:08:24;12.10;82.80
38606;DHT22;24365;48.446;8.850;2023-05-14T07:13:25;12.10;82.30
38606;DHT22;24365;48.446;8.850;2023-05-14T07:18:28;12.20;81.50
38606;DHT22;24365;48.446;8.850;2023-05-14T07:23:29;12.20;81.50
38606;DHT22;24365;48.446;8.850;2023-05-14T07:28:30;12.30;82.20
38606;DHT22;24365;48.446;8.850;2023-05-14T07:33:31;12.40;81.80
38606;DHT22;24365;48.446;8.850;2023-05-14T07:38:32;12.50;81.70
38606;DHT22;24365;48.446;8.850;2023-05-14T07:43:33;12.50;81.40
38606;DHT22;24365;48.446;8.850;2023-05-14T07:48:34;12.60;80.40
38606;DHT22;24365;48.446;8.850;2023-05-14T07:53:35;12.60;80.40
38606;DHT22;24365;48.446;8.850;2023-05-14T07:58:36;12.70;80.50
38606;DHT22;24365;48.446;8.850;2023-05-14T08:03:37;12.70;79.60
38606;DHT22;24365;48.446;8.850;2023-05-14T08:08:38;12.70;80.40
38606;DHT22;24365;48.446;8.850;2023-05-14T08:13:39;12.80;80.10
38606;DHT22;24365;48.446;8.850;2023-05-14T08:18:41;12.90;78.80
38606;DHT22;24365;48.446;8.850;2023-05-14T08:23:43;12.90;78.40
38606;DHT22;24365;48.446;8.850;2023-05-14T08:28:44;13.00;79.20
38606;DHT22;24365;48.446;8.850;2023-05-14T08:33:45;13.10;78.30
38606;DHT22;24365;48.446;8.850;2023-05-14T08:38:46;13.20;78.50
38606;DHT22;24365;48.446;8.850;2023-05-14T08:49:14;13.30;79.00
38606;DHT22;24365;48.446;8.850;2023-05-14T08:54:20;13.30;78.10
38606;DHT22;24365;48.446;8.850;2023-05-14T08:59:23;13.30;77.50
38606;DHT22;24365;48.446;8.850;2023-05-14T09:04:24;13.40;78.20
38606;DHT22;24365;48.446;8.850;2023-05-14T09:09:26;13.60;76.90
38606;DHT22;24365;48.446;8.850;2023-05-14T09:14:27;13.90;77.20
38606;DHT22;24365;48.446;8.850;2023-05-14T09:19:28;14.20;76.10
38606;DHT22;24365;48.446;8.850;2023-05-14T09:24:30;14.50;74.40
38606;DHT22;24365;48.446;8.850;2023-05-14T09:29:31;14.80;71.90
38606;DHT22;24365;48.446;8.850;2023-05-14T09:34:33;14.90;69.70
38606;DHT22;24365;48.446;8.850;2023-05-14T09:39:37;14.90;68.60
38606;DHT22;24365;48.446;8.850;2023-05-14T09:44:39;14.90;68.80
38606;DHT22;24365;48.446;8.850;2023-05-14T09:49:40;15.00;69.30
38606;DHT22;24365;48.446;8.850;2023-05-14T09:54:42;15.30;67.90
38606;DHT22;24365;48.446;8.850;2023-05-14T09:59:45;15.50;67.50
38606;DHT22;24365;48.446;8.850;2023-05-14T10:04:51;15.60;64.00
38606;DHT22;24365;48.446;8.850;2023-05-14T10:10:00;16.00;64.20
38606;DHT22;24365;48.446;8.850;2023-05-14T10:15:05;16.20;61.50
38606;DHT22;24365;48.446;8.850;2023-05-14T10:20:07;16.30;59.70
38606;DHT22;24365;48.446;8.850;2023-05-14T10:25:11;16.50;60.70
38606;DHT22;24365;48.446;8.850;2023-05-14T10:30:13;16.90;58.40
38606;DHT22;24365;48.446;8.850;2023-05-14T10:35:15;17.00;56.80
38606;DHT22;24365;48.446;8.850;2023-05-14T10:40:16;17.00;57.50
38606;DHT22;24365;48.446;8.850;2023-05-14T10:45:18;17.50;56.10
38606;DHT22;24365;48.446;8.850;2023-05-14T10:50:19;17.80;52.10
38606;DHT22;24365;48.446;8.850;2023-05-14T10:55:21;17.90;51.10
38606;DHT22;24365;48.446;8.850;2023-05-14T11:00:24;18.00;52.10
38606;DHT22;24365;48.446;8.850;2023-05-14T11:05:27;18.00;48.60
38606;DHT22;24365;48.446;8.850;2023-05-14T11:10:29;17.90;48.90
38606;DHT22;24365;48.446;8.850;2023-05-14T11:15:31;17.70;49.30
38606;DHT22;24365;48.446;8.850;2023-05-14T11:20:32;17.70;50.30
38606;DHT22;24365;48.446;8.850;2023-05-14T11:25:35;18.30;48.50
38606;DHT22;24365;48.446;8.850;2023-05-14T11:30:37;18.70;47.60
38606;DHT22;24365;48.446;8.850;2023-05-14T11:35:38;18.90;46.40
38606;DHT22;24365;48.446;8.850;2023-05-14T11:40:39;18.50;44.40
38606;DHT22;24365;48.446;8.850;2023-05-14T11:45:40;18.20;46.00
38606;DHT22;24365;48.446;8.850;2023-05-14T11:50:48;18.80;43.10
38606;DHT22;24365;48.446;8.850;2023-05-14T11:55:49;18.50;46.30
38606;DHT22;24365;48.446;8.850;2023-05-14T12:00:51;18.30;46.60
38606;DHT22;24365;48.446;8.850;2023-05-14T12:05:56;18.40;48.10
38606;DHT22;24365;48.446;8.850;2023-05-14T12:10:59;18.50;47.30
38606;DHT22;24365;48.446;8.850;2023-05-14T12:16:00;18.40;46.70
38606;DHT22;24365;48.446;8.850;2023-05-14T12:21:03;18.40;46.90
38606;DHT22;24365;48.446;8.850;2023-05-14T12:26:05;18.50;45.20
38606;DHT22;24365;48.446;8.850;2023-05-14T12:31:07;18.40;44.50
38606;DHT22;24365;48.446;8.850;2023-05-14T12:36:08;18.60;45.90
38606;DHT22;24365;48.446;8.850;2023-05-14T12:41:09;18.90;44.20
38606;DHT22;24365;48.446;8.850;2023-05-14T12:46:10;19.30;42.60
38606;DHT22;24365;48.446;8.850;2023-05-14T12:51:11;19.70;41.70
38606;DHT22;24365;48.446;8.850;2023-05-14T12:56:12;19.60;41.50
38606;DHT22;24365;48.446;8.850;2023-05-14T13:01:15;19.80;41.20
38606;DHT22;24365;48.446;8.850;2023-05-14T13:06:16;20.40;41.50
38606;DHT22;24365;48.446;8.850;2023-05-14T13:11:17;20.80;39.80
38606;DHT22;24365;48.446;8.850;2023-05-14T13:16:18;20.50;39.70
38606;DHT22;24365;48.446;8.850;2023-05-14T13:21:21;19.80;39.10
38606;DHT22;24365;48.446;8.850;2023-05-14T13:26:22;20.30;40.80
38606;DHT22;24365;48.446;8.850;2023-05-14T13:31:27;20.40;39.60
38606;DHT22;24365;48.446;8.850;2023-05-14T13:36:29;19.50;37.70
38606;DHT22;24365;48.446;8.850;2023-05-14T13:41:31;18.80;40.30
38606;DHT22;24365;48.446;8.850;2023-05-14T13:46:37;18.50;43.10
38606;DHT22;24365;48.446;8.850;2023-05-14T13:51:38;18.10;44.40
38606;DHT22;24365;48.446;8.850;2023-05-14T13:56:39;18.10;43.00
38606;DHT22;24365;48.446;8.850;2023-05-14T14:01:40;17.60;46.10
38606;DHT22;24365;48.446;8.850;2023-05-14T14:06:43;17.70;47.50
38606;DHT22;24365;48.446;8.850;2023-05-14T14:11:44;17.50;48.30
38606;DHT22;24365;48.446;8.850;2023-05-14T14:16:45;17.40;50.00
38606;DHT22;24365;48.446;8.850;2023-05-14T14:21:46;17.30;50.80
38606;DHT22;24365;48.446;8.850;2023-05-14T14:26:47;17.20;50.50
38606;DHT22;24365;48.446;8.850;2023-05-14T14:31:48;17.00;50.50
38606;DHT22;24365;48.446;8.850;2023-05-14T14:36:50;17.00;51.20
38606;DHT22;24365;48.446;8.850;2023-05-14T14:41:51;16.90;51.90
38606;DHT22;24365;48.446;8.850;2023-05-14T14:46:52;16.70;52.30
38606;DHT22;24365;48.446;8.850;2023-05-14T14:51:53;16.60;53.70
38606;DHT22;24365;48.446;8.850;2023-05-14T14:56:54;16.40;53.50
38606;DHT22;24365;48.446;8.850;2023-05-14T15:01:55;16.20;53.60
38606;DHT22;24365;48.446;8.850;2023-05-14T15:06:56;16.00;54.10
38606;DHT22;24365;48.446;8.850;2023-05-14T15:11:58;15.90;56.10
38606;DHT22;24365;48.446;8.850;2023-05-14T15:16:59;15.80;57.20
38606;DHT22;24365;48.446;8.850;2023-05-14T15:22:00;15.80;58.10
38606;DHT22;24365;48.446;8.850;2023-05-14T15:27:01;15.60;60.10
38606;DHT22;24365;48.446;8.850;2023-05-14T15:32:02;15.50;61.70
38606;DHT22;24365;48.446;8.850;2023-05-14T15:37:03;15.50;63.30
38606;DHT22;24365;48.446;8.850;2023-05-14T15:42:04;15.40;64.80
38606;DHT22;24365;48.446;8.850;2023-05-14T15:47:06;15.30;65.70
38606;DHT22;24365;48.446;8.850;2023-05-14T15:52:09;15.20;66.70
38606;DHT22;24365;48.446;8.850;2023-05-14T15:57:11;14.90;68.60
38606;DHT22;24365;48.446;8.850;2023-05-14T16:02:13;14.90;71.10
38606;DHT22;24365;48.446;8.850;2023-05-14T16:07:14;14.90;70.20
38606;DHT22;24365;48.446;8.850;2023-05-14T16:12:15;14.80;70.90
38606;DHT22;24365;48.446;8.850;2023-05-14T16:17:16;14.70;72.00
38606;DHT22;24365;48.446;8.850;2023-05-14T16:22:18;14.90;72.70
38606;DHT22;24365;48.446;8.850;2023-05-14T16:27:20;15.00;72.60
38606;DHT22;24365;48.446;8.850;2023-05-14T16:32:21;15.10;71.40
38606;DHT22;24365;48.446;8.850;2023-05-14T16:37:24;15.20;70.50
38606;DHT22;24365;48.446;8.850;2023-05-14T16:42:26;15.20;70.20
38606;DHT22;24365;48.446;8.850;2023-05-14T16:47:27;15.10;71.60
38606;DHT22;24365;48.446;8.850;2023-05-14T16:52:28;15.00;72.30
38606;DHT22;24365;48.446;8.850;2023-05-14T16:57:29;15.00;72.90
38606;DHT22;24365;48.446;8.850;2023-05-14T17:02:30;15.00;73.30
38606;DHT22;24365;48.446;8.850;2023-05-14T17:07:31;15.10;74.30
38606;DHT22;24365;48.446;8.850;2023-05-14T17:12:33;15.00;74.50
38606;DHT22;24365;48.446;8.850;2023-05-14T17:17:34;15.00;75.00
38606;DHT22;24365;48.446;8.850;2023-05-14T17:22:35;14.90;75.30
38606;DHT22;24365;48.446;8.850;2023-05-14T17:27:36;14.90;75.10
38606;DHT22;24365;48.446;8.850;2023-05-14T17:32:37;14.90;75.30
38606;DHT22;24365;48.446;8.850;2023-05-14T17:37:38;14.80;75.60
38606;DHT22;24365;48.446;8.850;2023-05-14T17:42:42;14.70;77.30
38606;DHT22;24365;48.446;8.850;2023-05-14T17:47:47;14.30;80.00
38606;DHT22;24365;48.446;8.850;2023-05-14T17:52:49;13.90;81.10
38606;DHT22;24365;48.446;8.850;2023-05-14T17:57:50;14.00;81.30
38606;DHT22;24365;48.446;8.850;2023-05-14T18:02:51;14.00;80.80
38606;DHT22;24365;48.446;8.850;2023-05-14T18:07:52;14.10;80.20
38606;DHT22;24365;48.446;8.850;2023-05-14T18:12:54;14.30;79.50
38606;DHT22;24365;48.446;8.850;2023-05-14T18:17:56;14.30;79.00
38606;DHT22;24365;48.446;8.850;2023-05-14T18:22:57;14.30;78.90
38606;DHT22;24365;48.446;8.850;2023-05-14T18:27:58;14.30;78.40
38606;DHT22;24365;48.446;8.850;2023-05-14T18:33:00;14.30;78.50
38606;DHT22;24365;48.446;8.850;2023-05-14T18:38:04;14.30;78.90
38606;DHT22;24365;48.446;8.850;2023-05-14T18:43:07;14.30;78.90
38606;DHT22;24365;48.446;8.850;2023-05-14T18:48:08;14.20;78.90
38606;DHT22;24365;48.446;8.850;2023-05-14T18:53:10;14.20;78.80
38606;DHT22;24365;48.446;8.850;2023-05-14T18:58:12;14.00;79.00
38606;DHT22;24365;48.446;8.850;2023-05-14T19:03:14;13.80;79.60
38606;DHT22;24365;48.446;8.850;2023-05-14T19:08:15;13.90;79.30
38606;DHT22;24365;48.446;8.850;2023-05-14T19:13:17;13.70;78.80
38606;DHT22;24365;48.446;8.850;2023-05-14T19:18:18;13.60;79.10
38606;DHT22;24365;48.446;8.850;2023-05-14T19:23:20;13.60;78.70
38606;DHT22;24365;48.446;8.850;2023-05-14T19:28:21;13.50;78.10
38606;DHT22;24365;48.446;8.850;2023-05-14T19:33:23;13.50;77.40
38606;DHT22;24365;48.446;8.850;2023-05-14T19:38:26;13.30;77.40
38606;DHT22;24365;48.446;8.850;2023-05-14T19:43:27;13.30;77.50
38606;DHT22;24365;48.446;8.850;2023-05-14T19:48:28;13.10;77.80
38606;DHT22;24365;48.446;8.850;2023-05-14T19:53:31;13.10;78.40
38606;DHT22;24365;48.446;8.850;2023-05-14T19:58:32;13.00;77.60
38606;DHT22;24365;48.446;8.850;2023-05-14T20:03:33;13.00;77.10
38606;DHT22;24365;48.446;8.850;2023-05-14T20:08:34;12.90;76.40
38606;DHT22;24365;48.446;8.850;2023-05-14T20:13:35;12.80;76.60
38606;DHT22;24365;48.446;8.850;2023-05-14T20:18:36;12.70;76.70
38606;DHT22;24365;48.446;8.850;2023-05-14T20:23:37;12.60;76.30
38606;DHT22;24365;48.446;8.850;2023-05-14T20:28:38;12.50;76.30
38606;DHT22;24365;48.446;8.850;2023-05-14T20:33:39;12.50;75.90
38606;DHT22;24365;48.446;8.850;2023-05-14T20:38:40;12.40;75.90
38606;DHT22;24365;48.446;8.850;2023-05-14T20:43:41;12.30;75.80
38606;DHT22;24365;48.446;8.850;2023-05-14T20:48:43;12.30;75.80
38606;DHT22;24365;48.446;8.850;2023-05-14T20:53:44;12.20;75.90
38606;DHT22;24365;48.446;8.850;2023-05-14T20:58:45;12.10;75.70
38606;DHT22;24365;48.446;8.850;2023-05-14T21:03:46;12.00;75.60
38606;DHT22;24365;48.446;8.850;2023-05-14T21:08:47;12.00;75.60
38606;DHT22;24365;48.446;8.850;2023-05-14T21:13:48;11.90;75.80
38606;DHT22;24365;48.446;8.850;2023-05-14T21:18:50;11.80;75.80
38606;DHT22;24365;48.446;8.850;2023-05-14T21:23:51;11.80;75.80
38606;DHT22;24365;48.446;8.850;2023-05-14T21:28:55;11.70;76.20
38606;DHT22;24365;48.446;8.850;2023-05-14T21:33:56;11.60;77.40
38606;DHT22;24365;48.446;8.850;2023-05-14T21:38:57;11.60;77.40
38606;DHT22;24365;48.446;8.850;2023-05-14T21:43:58;11.60;77.60
38606;DHT22;24365;48.446;8.850;2023-05-14T21:48:59;11.60;77.80
38606;DHT22;24365;48.446;8.850;2023-05-14T21:54:00;11.60;77.90
38606;DHT22;24365;48.446;8.850;2023-05-14T21:59:01;11.50;79.10
38606;DHT22;24365;48.446;8.850;2023-05-14T22:04:03;11.50;79.10
38606;DHT22;24365;48.446;8.850;2023-05-14T22:09:05;11.50;79.00
38606;DHT22;24365;48.446;8.850;2023-05-14T22:14:06;11.50;79.00
38606;DHT22;24365;48.446;8.850;2023-05-14T22:19:07;11.50;79.20
38606;DHT22;24365;48.446;8.850;2023-05-14T22:24:08;11.50;79.30
38606;DHT22;24365;48.446;8.850;2023-05-14T22:29:09;11.40;79.40
38606;DHT22;24365;48.446;8.850;2023-05-14T22:34:10;11.40;79.90
38606;DHT22;24365;48.446;8.850;2023-05-14T22:39:12;11.40;80.00
38606;DHT22;24365;48.446;8.850;2023-05-14T22:44:13;11.40;79.70
38606;DHT22;24365;48.446;8.850;2023-05-14T22:49:14;11.30;80.20
38606;DHT22;24365;48.446;8.850;2023-05-14T22:54:16;11.30;80.30
38606;DHT22;24365;48.446;8.850;2023-05-14T22:59:17;11.30;80.10
38606;DHT22;24365;48.446;8.850;2023-05-14T23:04:18;11.30;79.80
38606;DHT22;24365;48.446;8.850;2023-05-14T23:09:19;11.30;79.90
38606;DHT22;24365;48.446;8.850;2023-05-14T23:14:20;11.30;79.80
38606;DHT22;24365;48.446;8.850;2023-05-14T23:19:22;11.30;79.80
38606;DHT22;24365;48.446;8.850;2023-05-14T23:24:23;11.30;79.50
38606;DHT22;24365;48.446;8.850;2023-05-14T23:29:25;11.20;79.70
38606;DHT22;24365;48.446;8.850;2023-05-14T23:34:30;11.00;80.50
38606;DHT22;24365;48.446;8.850;2023-05-14T23:39:32;11.00;80.60
38606;DHT22;24365;48.446;8.850;2023-05-14T23:44:33;10.80;81.60
38606;DHT22;24365;48.446;8.850;2023-05-14T23:49:35;10.80;82.30
38606;DHT22;24365;48.446;8.850;2023-05-14T23:54:37;10.80;81.60
38606;DHT22;24365;48.446;8.850;2023-05-14T23:59:38;10.80;81.60
